Nearby METAR Reports



KADS - Dallas/Addison, Texas, USA
Distance from station: SSW 10mi, 16km
Updated: Fri, 17-Aug-2018 1:47pm CDT
Clear
Clear
 Wind from SSE
Wind: SSE 7 mph , 11 km/h
Temperature: 93°F , 34°C
Heat Index: 97°F , 36°C
Dew Point: 68°F , 20°C
Humidity: 44%
Barometer: 30.03 inHg , 1016.9 hPa
Clouds: Clear
Visibility: 10 miles , 16 km
2018/08/17 18:47 KADS 171847Z 15006KT 10SM SKC 34/20 A3003
KTKI - Mckinney, Texas, USA
Distance from station: ENE 11mi, 18km
Updated: Fri, 17-Aug-2018 1:53pm CDT
Clear
Clear
 Wind from S
Wind: S 13 mph , 20 km/h
Temperature: 95°F , 35°C
Heat Index: 101°F , 38°C
Dew Point: 70°F , 21°C
Humidity: 44%
Barometer: 30.02 inHg , 1016.6 hPa
Clouds: Clear
Visibility: 10 miles , 16 km
2018/08/17 18:53 KTKI 171853Z 19011KT 10SM CLR 35/21 A3002 RMK AO2 SLP157 T03500211
 
KDAL - Dallas/Love Fld, Texas, USA
Distance from station: SSW 18mi, 30km
Updated: Fri, 17-Aug-2018 1:53pm CDT
Partly cloudy
Partly cloudy
 Wind from S
Wind: S 7 mph , 11 km/h
Temperature: 95°F , 35°C
Heat Index: 101°F , 38°C
Dew Point: 70°F , 21°C
Humidity: 44%
Barometer: 30.02 inHg , 1016.6 hPa
Clouds: Partly cloudy
Visibility: 10 miles , 16 km
Cloud details: Few Clouds 1200 ft
Few Clouds 10000 ft
Few Clouds 16000 ft
Partly cloudy 25000 ft
2018/08/17 18:53 KDAL 171853Z 17006KT 10SM FEW012 FEW100 FEW160 SCT250 35/21 A3002 RMK AO2 SLP157 FU FEW012 W T03500211
KDFW - Dallas/Ft Worth, Texas, USA
Distance from station: SW 21mi, 34km
Updated: Fri, 17-Aug-2018 1:53pm CDT
Partly cloudy
Partly cloudy
 Wind from S
Wind: S 6 mph , 9 km/h, Gust: 17 mph , 28 km/h
Temperature: 93°F , 34°C
Heat Index: 99°F , 37°C
Dew Point: 70°F , 21°C
Humidity: 47%
Barometer: 30.02 inHg , 1016.6 hPa
Clouds: Partly cloudy
Visibility: 10 miles , 16 km
Cloud details: Few Clouds 9000 ft
Partly cloudy 18000 ft
Partly cloudy 30000 ft
2018/08/17 18:53 KDFW 171853Z 19005G15KT 10SM FEW090 SCT180 SCT300 34/21 A3002 RMK AO2 SLP153 T03440211
 
KF46 - Rockwall, Texas, USA
Distance from station: ESE 22mi, 35km
Updated: Fri, 17-Aug-2018 1:55pm CDT
Clear
Clear
 Wind from SSW
Wind: SSW 6 mph , 9 km/h
Temperature: 93°F , 34°C
Heat Index: 100°F , 38°C
Dew Point: 72°F , 22°C
Humidity: 49%
Barometer: 30.04 inHg , 1017.3 hPa
Clouds: Clear
Visibility: 10 miles , 16 km
2018/08/17 18:55 KF46 171855Z AUTO 21005KT 10SM CLR 34/22 A3004 RMK AO2 T03370219
KDTO - Denton, Texas, USA
Distance from station: WNW 27mi, 43km
Updated: Fri, 17-Aug-2018 1:53pm CDT
Clear
Clear
 Wind from S
Wind: S 12 mph , 19 km/h
Temperature: 93°F , 34°C
Heat Index: 100°F , 38°C
Dew Point: 72°F , 22°C
Humidity: 49%
Barometer: 30.02 inHg , 1016.6 hPa
Clouds: Clear
Visibility: 10 miles , 16 km
2018/08/17 18:53 KDTO 171853Z 18010KT 10SM CLR 34/22 A3002 RMK AO2 SLP155 T03440222
 
KHQZ - Mesquite, Texas, USA
Distance from station: SSE 28mi, 44km
Updated: Fri, 17-Aug-2018 1:50pm CDT
Clear
Clear
 Wind from S
Wind: S 10 mph , 17 km/h, Gust: 15 mph , 24 km/h
Temperature: 93°F , 34°C
Heat Index: 96°F , 36°C
Dew Point: 66°F , 19°C
Humidity: 41%
Barometer: 30.03 inHg , 1016.9 hPa
Clouds: Clear
Visibility: 10 miles , 16 km
2018/08/17 18:50 KHQZ 171850Z 17009G13KT 10SM CLR 34/19 A3003
KRBD - Dallas/Redbird, Texas, USA
Distance from station: SSW 30mi, 48km
Updated: Fri, 17-Aug-2018 1:53pm CDT
Clear
Clear
 Wind from varies
Wind: varies 7 mph , 11 km/h
Temperature: 97°F , 36°C
Heat Index: 104°F , 40°C
Dew Point: 70°F , 21°C
Humidity: 42%
Barometer: 30.02 inHg , 1016.6 hPa
Clouds: Clear
Visibility: 10 miles , 16 km
2018/08/17 18:53 KRBD 171853Z VRB06KT 10SM CLR 36/21 A3002 RMK AO2 SLP156 T03560206
 
KGPM - Grand Prairie, Texas, USA
Distance from station: SSW 33mi, 53km
Updated: Fri, 17-Aug-2018 1:50pm CDT
Clear
Clear
 Wind from SSW
Wind: SSW 10 mph , 17 km/h
Temperature: 95°F , 35°C
Dew Point: 64°F , 18°C
Humidity: 36%
Barometer: 30.04 inHg , 1017.3 hPa
Clouds: Clear
Visibility: 10 miles , 16 km
2018/08/17 18:50 KGPM 171850Z 20009KT 10SM SKC 35/18 A3004
KAFW - Ft Worth/Allianc, Texas, USA
Distance from station: WSW 34mi, 55km
Updated: Fri, 17-Aug-2018 1:53pm CDT
Partly cloudy
Partly cloudy
 Wind from SW
Wind: SW 9 mph , 15 km/h
Temperature: 93°F , 34°C
Heat Index: 99°F , 37°C
Dew Point: 70°F , 21°C
Humidity: 47%
Barometer: 30.03 inHg , 1016.9 hPa
Clouds: Partly cloudy
Visibility: 10 miles , 16 km
Cloud details: Few Clouds 12000 ft
Partly cloudy 30000 ft
2018/08/17 18:53 KAFW 171853Z 22008KT 10SM FEW120 SCT300 34/21 A3003 RMK AO2 SLP149 T03440211
 
KLNC - Lancaster, Texas, USA
Distance from station: S 36mi, 58km
Updated: Fri, 17-Aug-2018 1:55pm CDT
Clear
Clear
 Wind from SSW
Wind: SSW 7 mph , 11 km/h
Temperature: 93°F , 34°C
Heat Index: 97°F , 36°C
Dew Point: 68°F , 20°C
Humidity: 44%
Barometer: 30.04 inHg , 1017.3 hPa
Clouds: Clear
Visibility: 10 miles , 16 km
2018/08/17 18:55 KLNC 171855Z AUTO 21006KT 10SM CLR 34/20 A3004 RMK AO2 T03410198
KGKY - Arlington, Texas, USA
Distance from station: SSW 36mi, 59km
Updated: Fri, 17-Aug-2018 1:53pm CDT
Clear
Clear
 Wind from S
Wind: S 8 mph , 13 km/h
Temperature: 95°F , 35°C
Heat Index: 103°F , 39°C
Dew Point: 72°F , 22°C
Humidity: 47%
Barometer: 30.03 inHg , 1016.9 hPa
Clouds: Clear
Visibility: 10 miles , 16 km
2018/08/17 18:53 KGKY 171853Z 17007KT 10SM CLR 35/22 A3003 RMK AO2 SLP158 T03500222 $
 
KTRL - Terrell, Texas, USA
Distance from station: SE 39mi, 63km
Updated: Fri, 17-Aug-2018 1:53pm CDT
Clear
Clear
 Wind from SSW
Wind: SSW 10 mph , 17 km/h
Temperature: 93°F , 34°C
Heat Index: 96°F , 36°C
Dew Point: 66°F , 19°C
Humidity: 41%
Barometer: 30.03 inHg , 1016.9 hPa
Clouds: Clear
Visibility: 10 miles , 16 km
2018/08/17 18:53 KTRL 171853Z AUTO 21009KT 10SM CLR 34/19 A3003 RMK AO2 SLP161 T03440189
KGVT - Greenville/Major, Texas, USA
Distance from station: E 40mi, 64km
Updated: Fri, 17-Aug-2018 1:30pm CDT
Clear
Clear
 Wind from SW
Wind: SW 8 mph , 13 km/h, Gust: 17 mph , 28 km/h
Temperature: 95°F , 35°C
Heat Index: 101°F , 38°C
Dew Point: 70°F , 21°C
Humidity: 44%
Barometer: 30.04 inHg , 1017.3 hPa
Clouds: Clear
Visibility: 10 miles , 16 km
2018/08/17 18:30 KGVT 171830Z AUTO 22007G15KT 10SM CLR 35/21 A3004 RMK AO2
 
KFTW - Fort Worth, Texas, USA
Distance from station: WSW 40mi, 65km
Updated: Fri, 17-Aug-2018 1:53pm CDT
Clear
Clear
 Wind from S
Wind: S 9 mph , 15 km/h
Temperature: 97°F , 36°C
Heat Index: 106°F , 41°C
Dew Point: 72°F , 22°C
Humidity: 44%
Barometer: 30.02 inHg , 1016.6 hPa
Clouds: Clear
Visibility: 10 miles , 16 km
2018/08/17 18:53 KFTW 171853Z 18008KT 10SM CLR 36/22 A3002 RMK AO2 SLP155 T03610217
KGYI - Sherman/Denison, Texas, USA
Distance from station: N 43mi, 69km
Updated: Fri, 17-Aug-2018 1:55pm CDT
Clear
Clear
 Wind from SSW
Wind: SSW 14 mph , 22 km/h
Temperature: 95°F , 35°C
Heat Index: 103°F , 39°C
Dew Point: 72°F , 22°C
Humidity: 47%
Barometer: 30.02 inHg , 1016.6 hPa
Clouds: Clear
Visibility: 10 miles , 16 km
2018/08/17 18:55 KGYI 171855Z AUTO 21012KT 10SM CLR 35/22 A3002 RMK AO2 T03490217
 
KNFW - Fort Worth Nas, Texas, USA
Distance from station: WSW 45mi, 73km
Updated: Fri, 17-Aug-2018 11:52am CDT
NOT Current
Partly cloudy
Partly cloudy
 Wind from varies
Wind: varies 3 mph , 6 km/h
Temperature: 88°F , 31°C
Heat Index: 92°F , 33°C
Dew Point: 68°F , 20°C
Humidity: 52%
Barometer: 30.05 inHg , 1017.6 hPa
Clouds: Partly cloudy
Visibility: 10 miles , 16 km
Cloud details: Few Clouds 8500 ft
Partly cloudy 30000 ft
2018/08/17 16:52 KNFW 171652Z VRB03KT 10SM FEW085 SCT300 31/20 A3005 RMK AO2 SLP159 T03110200 $
KGLE - Gainesville, Texas, USA
Distance from station: NW 46mi, 74km
Updated: Fri, 17-Aug-2018 1:55pm CDT
Clear
Clear
 Wind from SSW
Wind: SSW 8 mph , 13 km/h
Temperature: 95°F , 35°C
Heat Index: 103°F , 39°C
Dew Point: 72°F , 22°C
Humidity: 47%
Barometer: 30.03 inHg , 1016.9 hPa
Clouds: Clear
Visibility: 10 miles , 16 km
2018/08/17 18:55 KGLE 171855Z AUTO 20007KT 190V250 10SM CLR 35/22 A3003 RMK AO2 T03470218
 
KJWY - Midlothian/Wax, Texas, USA
Distance from station: SSW 46mi, 74km
Updated: Fri, 17-Aug-2018 1:55pm CDT
Clear
Clear
 Wind from SW
Wind: SW 7 mph , 11 km/h
Temperature: 93°F , 34°C
Heat Index: 97°F , 36°C
Dew Point: 68°F , 20°C
Humidity: 44%
Barometer: 30.05 inHg , 1017.6 hPa
Clouds: Clear
Visibility: 10 miles , 16 km
2018/08/17 18:55 KJWY 171855Z AUTO 22006KT 10SM CLR 34/20 A3005 RMK AO2 T03360204
KFWS - Fort Worth/88d, Texas, USA
Distance from station: SW 49mi, 79km
Updated: Fri, 17-Aug-2018 12:55pm CDT
Clear
Clear
 Wind from SSE
Wind: SSE 6 mph , 9 km/h
Temperature: 91°F , 33°C
Heat Index: 94°F , 34°C
Dew Point: 66°F , 19°C
Humidity: 44%
Barometer: 30.07 inHg , 1018.3 hPa
Clouds: Clear
Visibility: 10 miles , 16 km
2018/08/17 17:55 KFWS 171755Z 16005KT 10SM SKC 33/19 A3007